Time;durP1;ratioP1;P1;durP2;ratioP2;P2;SDS_P1;SDS_P2;PMS_P1;PMS_P2;Temp;Humidity;BMP_temperature;BMP_pressure;BME280_temperature;BME280_humidity;BME280_pressure;Samples;Min_cycle;Max_cycle;Signal;HPM_P1;HPM_P2
2022/11/10 03:03:10;;;;;;;30.33;7.37;;;;;;;-145.18;100.00;46660.41;5175023;23;20653;-67
2022/11/10 03:05:36;;;;;;;26.10;6.83;;;;;;;-145.18;100.00;46656.50;4979252;28;20288;-67
2022/11/10 03:08:02;;;;;;;26.83;6.37;;;;;;;-145.18;100.00;46664.31;4991354;28;20169;-68
2022/11/10 03:10:29;;;;;;;30.20;6.50;;;;;;;-145.18;100.00;46660.41;4991844;28;20049;-67
2022/11/10 03:12:56;;;;;;;28.03;7.13;;;;;;;-145.18;100.00;46656.50;4991820;28;20292;-67
2022/11/10 03:15:22;;;;;;;20.63;6.80;;;;;;;-145.18;100.00;46658.44;4991651;28;20609;-67
2022/11/10 03:17:48;;;;;;;29.30;7.77;;;;;;;-145.18;100.00;46658.44;4991676;28;20339;-67
2022/11/10 03:20:13;;;;;;;34.53;8.13;;;;;;;-145.18;100.00;46662.34;4991435;28;20051;-68
2022/11/10 03:22:39;;;;;;;28.13;6.63;;;;;;;-145.18;100.00;46660.41;4991304;28;20080;-67
2022/11/10 03:25:04;;;;;;;27.87;8.07;;;;;;;-145.18;100.00;46662.34;4991473;28;20061;-67
2022/11/10 03:27:30;;;;;;;34.97;6.93;;;;;;;-145.18;100.00;46662.34;4991638;28;20034;-67
2022/11/10 03:29:55;;;;;;;25.50;7.27;;;;;;;-145.18;100.00;46660.41;4991748;28;20053;-67
2022/11/10 03:32:20;;;;;;;25.00;7.77;;;;;;;-145.18;100.00;46660.41;4991268;28;20035;-67
2022/11/10 03:34:46;;;;;;;28.67;6.50;;;;;;;-145.18;100.00;46660.41;4974288;28;20042;-67
2022/11/10 03:37:11;;;;;;;24.70;6.63;;;;;;;-145.18;100.00;46660.41;4999077;28;20069;-68
2022/11/10 03:39:37;;;;;;;30.00;7.63;;;;;;;-145.18;100.00;46662.34;4991530;28;20063;-68
2022/11/10 03:42:02;;;;;;;32.17;7.87;;;;;;;-145.18;100.00;46658.44;4990985;28;20038;-67
2022/11/10 03:44:27;;;;;;;36.83;9.10;;;;;;;-145.18;100.00;46658.44;4991684;28;20026;-68
2022/11/10 03:46:53;;;;;;;32.67;6.93;;;;;;;-145.18;100.00;46662.34;4991318;28;20133;-67
2022/11/10 03:49:18;;;;;;;32.83;6.90;;;;;;;-145.18;100.00;46660.41;4990688;28;20070;-67
2022/11/10 03:51:43;;;;;;;37.53;8.10;;;;;;;-145.18;100.00;46662.34;4991375;28;20082;-67
2022/11/10 03:54:09;;;;;;;30.20;7.43;;;;;;;-145.18;100.00;46664.31;4990689;28;20042;-67
2022/11/10 03:56:34;;;;;;;33.27;7.77;;;;;;;-145.18;100.00;46660.41;4990475;28;20035;-67
2022/11/10 03:58:59;;;;;;;24.57;7.30;;;;;;;-145.18;100.00;46664.31;4989606;28;20054;-69
2022/11/10 04:01:25;;;;;;;24.40;6.83;;;;;;;-145.18;100.00;46664.31;4990605;28;20042;-67
2022/11/10 04:03:50;;;;;;;33.97;6.87;;;;;;;-145.18;100.00;46660.41;4990714;28;20058;-67
2022/11/10 04:09:00;;;;;;;29.97;6.07;;;;;;;-145.18;100.00;46664.31;4990802;28;20048;-67
2022/11/10 04:16:58;;;;;;;31.47;7.30;;;;;;;-145.18;100.00;46664.31;4991102;28;20322;-67
2022/11/10 04:19:24;;;;;;;31.90;7.53;;;;;;;-145.18;100.00;46662.34;4990378;28;20304;-68
2022/11/10 04:21:50;;;;;;;25.90;7.03;;;;;;;-145.18;100.00;46668.22;4991036;28;20042;-67
2022/11/10 04:24:15;;;;;;;30.97;6.80;;;;;;;-145.18;100.00;46660.41;4990329;28;20037;-67
2022/11/10 04:26:41;;;;;;;30.80;7.00;;;;;;;-145.18;100.00;46668.22;4990835;28;20034;-67
2022/11/10 04:29:10;;;;;;;25.67;6.57;;;;;;;-145.18;100.00;46658.44;4990129;28;20045;-68
2022/11/10 04:31:37;;;;;;;25.07;6.37;;;;;;;-145.18;100.00;46662.34;4990934;28;20307;-67
2022/11/10 04:34:06;;;;;;;26.77;5.93;;;;;;;-145.18;100.00;46666.25;4990229;28;20267;-67
2022/11/10 04:36:34;;;;;;;24.53;6.50;;;;;;;-145.18;100.00;46664.31;4990323;28;20287;-67
2022/11/10 04:38:59;;;;;;;25.23;6.10;;;;;;;-145.18;100.00;46662.34;4990425;28;20299;-67
2022/11/10 04:41:27;;;;;;;25.43;5.70;;;;;;;-145.18;100.00;46666.25;4990349;28;20761;-68
2022/11/10 04:43:52;;;;;;;27.33;6.83;;;;;;;-145.18;100.00;46664.31;4990718;28;20080;-68
2022/11/10 04:46:33;;;;;;;32.50;6.57;;;;;;;-145.18;100.00;46666.25;5000235;28;20767;-67
2022/11/10 04:48:59;;;;;;;26.67;7.03;;;;;;;-145.18;100.00;46664.31;5002707;28;20109;-67
2022/11/10 04:51:27;;;;;;;25.30;6.53;;;;;;;-145.18;100.00;46664.31;5001226;28;20272;-68
2022/11/10 04:53:53;;;;;;;31.30;6.57;;;;;;;-145.18;100.00;46660.41;4999603;28;20279;-67
2022/11/10 04:56:21;;;;;;;26.50;6.90;;;;;;;-145.18;100.00;46660.41;5000444;28;20276;-67
2022/11/10 04:58:47;;;;;;;20.20;6.17;;;;;;;-145.18;100.00;46658.44;4995793;28;20117;-68
2022/11/10 05:01:15;;;;;;;31.10;7.13;;;;;;;-145.18;100.00;46664.31;4994495;28;20779;-68
2022/11/10 05:03:41;;;;;;;32.37;7.13;;;;;;;-145.18;100.00;46668.22;4983720;28;20303;-69
2022/11/10 05:06:07;;;;;;;25.57;6.70;;;;;;;-145.18;100.00;46662.34;4972981;28;20422;-69
2022/11/10 05:08:32;;;;;;;32.20;5.90;;;;;;;-145.18;100.00;46656.50;4983926;28;20783;-68
2022/11/10 05:10:58;;;;;;;30.07;6.37;;;;;;;-145.18;100.00;46664.31;5001718;28;20647;-68
2022/11/10 05:13:23;;;;;;;32.83;6.27;;;;;;;-145.18;100.00;46660.41;5003571;28;20149;-68
2022/11/10 05:15:48;;;;;;;28.30;7.60;;;;;;;-145.18;100.00;46662.34;4995188;28;20042;-68
2022/11/10 05:18:14;;;;;;;29.77;6.77;;;;;;;-145.18;100.00;46662.34;4993338;28;20117;-68
2022/11/10 05:20:39;;;;;;;26.23;6.00;;;;;;;-145.18;100.00;46662.34;4993741;28;20061;-68
2022/11/10 05:25:48;;;;;;;30.27;6.50;;;;;;;-145.18;100.00;46664.31;4993806;28;20049;-68
2022/11/10 05:28:15;;;;;;;24.47;6.03;;;;;;;-145.18;100.00;46668.22;4993027;28;20276;-69
2022/11/10 05:30:40;;;;;;;27.03;6.17;;;;;;;-145.18;100.00;46662.34;4993317;28;20507;-69
2022/11/10 05:33:06;;;;;;;29.73;6.87;;;;;;;-145.18;100.00;46658.44;4991517;28;20290;-69
2022/11/10 05:35:32;;;;;;;29.03;6.70;;;;;;;-145.18;100.00;46664.31;4993658;28;20034;-69
2022/11/10 05:37:58;;;;;;;24.53;7.13;;;;;;;-145.18;100.00;46664.31;4993078;28;20118;-69
2022/11/10 05:40:24;;;;;;;25.30;6.23;;;;;;;-145.18;100.00;46664.31;4993056;28;20471;-69
2022/11/10 05:42:53;;;;;;;33.07;6.23;;;;;;;-145.18;100.00;46662.34;4993418;28;20282;-68
2022/11/10 05:45:23;;;;;;;29.47;6.40;;;;;;;-145.18;100.00;46662.34;4993249;28;20034;-68
2022/11/10 05:47:49;;;;;;;26.97;6.27;;;;;;;-145.18;100.00;46662.34;4993244;28;20333;-68
2022/11/10 05:50:16;;;;;;;23.33;5.47;;;;;;;-145.18;100.00;46658.44;4992802;28;20272;-68
2022/11/10 05:52:43;;;;;;;24.57;5.67;;;;;;;-145.18;100.00;46664.31;4993084;28;20034;-69
2022/11/10 05:55:09;;;;;;;23.67;5.83;;;;;;;-145.18;100.00;46658.44;4992996;28;20668;-69
2022/11/10 05:57:34;;;;;;;33.33;7.30;;;;;;;-145.18;100.00;46660.41;4993200;28;20264;-68
2022/11/10 06:00:00;;;;;;;30.17;6.40;;;;;;;-145.18;100.00;46656.50;4992698;28;20085;-68
2022/11/10 06:02:25;;;;;;;31.90;6.20;;;;;;;-145.18;100.00;46666.25;4992465;28;20133;-68
2022/11/10 06:04:50;;;;;;;29.60;6.37;;;;;;;-145.18;100.00;46662.34;4992894;28;20030;-69
2022/11/10 06:07:16;;;;;;;21.70;5.63;;;;;;;-145.18;100.00;46658.44;4992877;28;20038;-69
2022/11/10 06:09:41;;;;;;;24.23;6.13;;;;;;;-145.18;100.00;46662.34;4992829;28;20486;-68
2022/11/10 06:12:06;;;;;;;25.53;6.90;;;;;;;-145.18;100.00;46658.44;4992815;28;20034;-69
2022/11/10 06:14:32;;;;;;;27.20;6.20;;;;;;;-145.18;100.00;46662.34;4992530;28;20030;-69
2022/11/10 06:16:57;;;;;;;26.83;5.67;;;;;;;-145.18;100.00;46668.22;4992860;28;20037;-68
2022/11/10 06:19:22;;;;;;;25.43;5.90;;;;;;;-145.18;100.00;46662.34;4991966;28;20174;-69
2022/11/10 06:21:48;;;;;;;31.63;5.93;;;;;;;-145.18;100.00;46660.41;4992930;28;20105;-68
2022/11/10 06:24:13;;;;;;;21.13;5.37;;;;;;;-145.18;100.00;46658.44;4992504;28;20058;-69
2022/11/10 06:26:38;;;;;;;28.17;5.53;;;;;;;-145.18;100.00;46664.31;4992823;28;20044;-68
2022/11/10 06:29:04;;;;;;;30.27;6.13;;;;;;;-145.18;100.00;46664.31;4991944;28;20035;-69
2022/11/10 06:31:29;;;;;;;24.73;6.03;;;;;;;-145.18;100.00;46662.34;4991358;28;20073;-69
2022/11/10 06:33:54;;;;;;;16.97;5.27;;;;;;;-145.18;100.00;46660.41;4992213;28;20045;-69
2022/11/10 06:36:21;;;;;;;25.40;6.53;;;;;;;-145.18;100.00;46668.22;4992268;28;20109;-69
2022/11/10 06:38:46;;;;;;;17.07;6.03;;;;;;;-145.18;100.00;46664.31;4992353;28;20066;-68
2022/11/10 06:41:11;;;;;;;22.37;5.27;;;;;;;-145.18;100.00;46662.34;4990936;28;20708;-68
2022/11/10 06:43:37;;;;;;;19.80;5.73;;;;;;;-145.18;100.00;46662.34;4992274;28;20034;-68
2022/11/10 06:46:02;;;;;;;23.33;5.37;;;;;;;-145.18;100.00;46662.34;4991936;28;20048;-68
2022/11/10 06:48:28;;;;;;;31.87;5.73;;;;;;;-145.18;100.00;46664.31;4992001;28;20082;-68
2022/11/10 06:50:53;;;;;;;25.47;6.03;;;;;;;-145.18;100.00;46658.44;4994037;28;20375;-68
2022/11/10 06:53:18;;;;;;;26.37;5.77;;;;;;;-145.18;100.00;46660.41;5011259;28;20540;-68
2022/11/10 06:55:44;;;;;;;30.47;6.40;;;;;;;-145.18;100.00;46658.44;4993993;28;20054;-68
2022/11/10 06:58:09;;;;;;;24.00;5.80;;;;;;;-145.18;100.00;46656.50;5011087;28;20069;-68
2022/11/10 07:00:35;;;;;;;27.83;4.97;;;;;;;-145.18;100.00;46660.41;5011253;28;20044;-68
2022/11/10 07:03:02;;;;;;;29.20;5.67;;;;;;;-145.18;100.00;46658.44;5011113;28;20120;-68
2022/11/10 07:05:28;;;;;;;22.20;4.90;;;;;;;-145.18;100.00;46664.31;5011491;28;20570;-68
2022/11/10 07:07:53;;;;;;;34.77;6.70;;;;;;;-145.18;100.00;46662.34;5011398;28;20366;-68
2022/11/10 07:10:19;;;;;;;30.90;5.47;;;;;;;-145.18;100.00;46666.25;5011357;28;20038;-68
2022/11/10 07:12:44;;;;;;;20.57;4.77;;;;;;;-145.18;100.00;46658.44;5011276;28;20057;-68
2022/11/10 07:15:09;;;;;;;19.17;5.03;;;;;;;-145.18;100.00;46660.41;5010909;28;20085;-68
2022/11/10 07:17:39;;;;;;;35.23;5.60;;;;;;;-145.18;100.00;46658.44;5011330;28;20037;-68
2022/11/10 07:20:06;;;;;;;14.60;5.63;;;;;;;-145.18;100.00;46670.16;5010980;28;20108;-68
2022/11/10 07:22:31;;;;;;;24.80;5.13;;;;;;;-145.18;100.00;46660.41;5011339;28;20275;-68
2022/11/10 07:24:56;;;;;;;25.70;6.07;;;;;;;-145.18;100.00;46662.34;5010965;28;20259;-68
2022/11/10 07:27:22;;;;;;;28.63;6.07;;;;;;;-145.18;100.00;46666.25;5011130;28;20036;-68
2022/11/10 07:29:47;;;;;;;24.87;5.50;;;;;;;-145.18;100.00;46664.31;5000261;28;20042;-68
2022/11/10 07:32:13;;;;;;;31.93;5.90;;;;;;;-145.18;100.00;46654.53;4992092;28;20057;-69
2022/11/10 07:34:39;;;;;;;21.57;5.30;;;;;;;-145.18;100.00;46662.34;5010992;28;20026;-68
2022/11/10 07:37:04;;;;;;;25.57;5.00;;;;;;;-145.18;100.00;46662.34;5010164;28;20273;-69
2022/11/10 07:39:30;;;;;;;28.10;5.87;;;;;;;-145.18;100.00;46664.31;5010684;28;20030;-68
2022/11/10 07:41:56;;;;;;;21.97;5.40;;;;;;;-145.18;100.00;46664.31;5010922;28;20037;-68
2022/11/10 07:44:22;;;;;;;25.57;5.60;;;;;;;-145.18;100.00;46662.34;5010521;28;20490;-68
2022/11/10 07:46:47;;;;;;;28.33;6.87;;;;;;;-145.18;100.00;46664.31;5010887;28;20263;-69
2022/11/10 07:49:13;;;;;;;35.70;6.90;;;;;;;-145.18;100.00;46658.44;5010367;28;20095;-69
2022/11/10 07:51:38;;;;;;;29.37;5.87;;;;;;;-145.18;100.00;46658.44;5010505;28;20652;-69
2022/11/10 07:54:04;;;;;;;31.90;6.13;;;;;;;-145.18;100.00;46658.44;5010243;28;20501;-69
2022/11/10 07:56:29;;;;;;;23.47;5.80;;;;;;;-145.18;100.00;46662.34;5010690;28;20426;-68
2022/11/10 07:58:54;;;;;;;24.47;5.40;;;;;;;-145.18;100.00;46666.25;5010265;28;20122;-68
2022/11/10 08:01:20;;;;;;;26.20;5.90;;;;;;;-145.18;100.00;46660.41;5009560;28;20059;-68
2022/11/10 08:03:45;;;;;;;27.90;5.63;;;;;;;-145.18;100.00;46658.44;5010164;28;20572;-68
2022/11/10 08:06:12;;;;;;;29.70;6.53;;;;;;;-145.18;100.00;46666.25;5010501;28;20135;-68
2022/11/10 08:08:37;;;;;;;25.83;6.03;;;;;;;-145.18;100.00;46658.44;5010339;28;21032;-69
2022/11/10 08:11:02;;;;;;;24.47;6.27;;;;;;;-145.18;100.00;46666.25;5010269;28;20115;-69
2022/11/10 08:13:28;;;;;;;26.67;5.67;;;;;;;-145.18;100.00;46658.44;5010538;28;20114;-69
2022/11/10 08:15:53;;;;;;;28.20;5.97;;;;;;;-145.18;100.00;46660.41;5010449;28;20077;-68
2022/11/10 08:18:22;;;;;;;21.83;5.33;;;;;;;-145.18;100.00;46660.41;5005785;28;20036;-69
2022/11/10 08:20:48;;;;;;;25.23;5.43;;;;;;;-145.18;100.00;46656.50;5008277;28;20053;-68
2022/11/10 08:23:14;;;;;;;26.90;4.97;;;;;;;-145.18;100.00;46660.41;5009953;28;20728;-68
2022/11/10 08:25:40;;;;;;;27.03;5.93;;;;;;;-145.18;100.00;46660.41;4991817;28;20080;-68
2022/11/10 08:28:09;;;;;;;33.93;7.13;;;;;;;-145.18;100.00;46658.44;5009915;28;20682;-69
2022/11/10 08:30:37;;;;;;;37.63;6.73;;;;;;;-145.18;100.00;46660.41;5010235;28;20025;-69
2022/11/10 08:33:04;;;;;;;27.77;4.93;;;;;;;-145.18;100.00;46664.31;5009974;28;20318;-68
2022/11/10 08:35:33;;;;;;;24.07;5.83;;;;;;;-145.18;100.00;46662.34;5010375;28;20101;-68
2022/11/10 08:38:06;;;;;;;27.10;4.23;;;;;;;-145.18;100.00;46666.25;5009735;28;20271;-69
2022/11/10 08:40:31;;;;;;;27.07;5.27;;;;;;;-145.18;100.00;46664.31;5010217;28;20022;-69
2022/11/10 08:43:01;;;;;;;28.73;5.70;;;;;;;-145.18;100.00;46666.25;5012180;28;20474;-69
2022/11/10 08:45:27;;;;;;;26.27;5.23;;;;;;;-145.18;100.00;46674.06;5014025;28;20038;-69
2022/11/10 08:48:00;;;;;;;27.07;6.30;;;;;;;-145.18;100.00;46664.31;5014208;28;20034;-69
2022/11/10 08:50:26;;;;;;;28.63;5.60;;;;;;;-145.18;100.00;46676.03;5013248;28;20026;-69
2022/11/10 08:52:52;;;;;;;22.37;4.80;;;;;;;-145.18;100.00;46672.13;4996510;28;20405;-69
2022/11/10 08:55:19;;;;;;;31.77;5.43;;;;;;;-145.18;100.00;46677.97;5013743;28;20030;-69
2022/11/10 08:57:45;;;;;;;22.30;4.53;;;;;;;-145.18;100.00;46679.94;5013730;28;20033;-69
2022/11/10 09:00:14;;;;;;;20.47;4.73;;;;;;;-145.18;100.00;46677.97;5013971;28;20438;-69
2022/11/10 09:02:39;;;;;;;31.07;5.20;;;;;;;-145.18;100.00;46681.88;5013255;28;20053;-69
2022/11/10 09:05:05;;;;;;;25.30;4.93;;;;;;;-145.18;100.00;46679.94;5013548;28;20184;-69
2022/11/10 09:07:32;;;;;;;19.97;4.70;;;;;;;-145.18;100.00;46677.97;5013785;28;20044;-69
2022/11/10 09:09:57;;;;;;;21.00;4.83;;;;;;;-145.18;100.00;46676.03;5013484;28;20026;-69
2022/11/10 09:12:23;;;;;;;21.90;4.50;;;;;;;-145.18;100.00;46679.94;5013294;28;20107;-69
2022/11/10 09:14:48;;;;;;;23.40;4.87;;;;;;;-145.18;100.00;46674.06;5013573;28;20045;-69
2022/11/10 09:17:13;;;;;;;32.53;4.80;;;;;;;-145.18;100.00;46685.78;5013360;28;20045;-69
2022/11/10 09:19:39;;;;;;;26.13;6.03;;;;;;;-145.18;100.00;46681.88;5013061;28;20046;-69
2022/11/10 09:22:04;;;;;;;22.53;5.83;;;;;;;-145.18;100.00;46683.84;5013290;28;20060;-69
2022/11/10 09:24:30;;;;;;;20.80;3.90;;;;;;;-145.18;100.00;46687.75;5013711;28;20517;-69
2022/11/10 09:26:55;;;;;;;21.00;4.50;;;;;;;-145.18;100.00;46691.66;5013446;28;20048;-69
2022/11/10 09:29:21;;;;;;;26.57;6.50;;;;;;;-145.18;100.00;46687.75;5013106;28;20092;-69
2022/11/10 09:31:47;;;;;;;24.07;4.17;;;;;;;-145.18;100.00;46691.66;5013143;28;20044;-69
2022/11/10 09:34:12;;;;;;;19.10;3.60;;;;;;;-145.18;100.00;46685.78;5013228;28;20030;-69
2022/11/10 09:36:39;;;;;;;18.87;4.33;;;;;;;-145.18;100.00;46695.56;5013386;28;20537;-69
2022/11/10 09:39:07;;;;;;;19.43;4.67;;;;;;;-145.18;100.00;46693.59;5012895;28;20052;-69
2022/11/10 09:41:37;;;;;;;27.53;4.37;;;;;;;-145.18;100.00;46691.66;5013339;28;20041;-69
2022/11/10 09:44:20;;;;;;;16.77;3.83;;;;;;;-145.18;100.00;46689.69;5012413;28;20478;-69
2022/11/10 09:46:52;;;;;;;31.00;4.83;;;;;;;-145.18;100.00;46691.66;5013260;28;20029;-69
2022/11/10 09:49:23;;;;;;;19.37;4.73;;;;;;;-145.18;100.00;46683.84;5012867;28;20461;-69
2022/11/10 09:51:51;;;;;;;22.87;4.60;;;;;;;-145.18;100.00;46681.88;5012906;28;20030;-69
2022/11/10 09:54:23;;;;;;;16.77;3.67;;;;;;;-145.18;100.00;46674.06;4994276;28;20113;-69
2022/11/10 09:56:52;;;;;;;16.90;4.20;;;;;;;-145.18;100.00;46670.16;5011645;28;20487;-69
2022/11/10 09:59:26;;;;;;;26.67;4.87;;;;;;;-145.18;100.00;46662.34;5012339;28;20176;-69
2022/11/10 10:02:22;;;;;;;23.23;4.13;;;;;;;-145.18;100.00;46650.63;5011845;28;20473;-69
2022/11/10 10:05:15;;;;;;;25.67;4.38;;;;;;;-145.18;100.00;46629.13;5012642;28;20049;-69
2022/11/10 10:07:53;;;;;;;15.47;2.93;;;;;;;-145.18;100.00;46623.28;5013052;28;20026;-70
2022/11/10 10:10:33;;;;;;;22.90;4.33;;;;;;;-145.18;100.00;46611.56;5011986;28;20080;-69
2022/11/10 10:13:23;;;;;;;24.23;4.27;;;;;;;-145.18;100.00;46588.13;5012784;28;20054;-70
2022/11/10 10:16:02;;;;;;;17.37;4.20;;;;;;;-145.18;100.00;46584.22;5012640;28;20052;-70
2022/11/10 10:18:39;;;;;;;25.53;5.33;;;;;;;-145.18;100.00;46580.31;5012652;28;20113;-69
2022/11/10 10:21:29;;;;;;;20.57;3.63;;;;;;;-145.18;100.00;46572.50;5012244;28;20517;-70
2022/11/10 10:23:58;;;;;;;16.97;3.57;;;;;;;-145.18;100.00;46578.34;5012285;28;20445;-70
2022/11/10 10:26:31;;;;;;;20.03;4.03;;;;;;;-145.18;100.00;46572.50;5012546;28;20088;-70
2022/11/10 10:29:06;;;;;;;22.50;3.77;;;;;;;-145.18;100.00;46578.34;5012336;28;20655;-70
2022/11/10 10:31:46;;;;;;;22.35;4.45;;;;;;;-145.18;100.00;46576.41;5012621;28;20030;-70
2022/11/10 10:34:18;;;;;;;23.83;4.17;;;;;;;-145.18;100.00;46584.22;5012255;28;20030;-70
2022/11/10 10:36:44;;;;;;;21.23;3.90;;;;;;;-145.18;100.00;46586.16;5012267;28;20049;-70
2022/11/10 10:39:29;;;;;;;21.37;3.93;;;;;;;-145.18;100.00;46588.13;5011685;28;20077;-70
2022/11/10 10:41:55;;;;;;;16.07;3.93;;;;;;;-145.18;100.00;46601.78;5012219;28;20034;-70
2022/11/10 10:44:20;;;;;;;15.20;3.90;;;;;;;-145.18;100.00;46593.97;5011812;28;20493;-70
2022/11/10 10:46:49;;;;;;;20.33;3.80;;;;;;;-145.18;100.00;46593.97;5012064;28;20030;-70
2022/11/10 10:49:25;;;;;;;22.73;4.30;;;;;;;-145.18;100.00;46601.78;5011587;28;20038;-70
2022/11/10 10:52:04;;;;;;;21.30;4.57;;;;;;;-145.18;100.00;46597.88;5012001;28;20030;-70
2022/11/10 10:54:32;;;;;;;19.40;4.70;;;;;;;-145.18;100.00;46601.78;5011837;28;20026;-70
2022/11/10 10:57:16;;;;;;;21.97;3.80;;;;;;;-145.18;100.00;46607.66;5011748;28;20040;-70
2022/11/10 10:59:41;;;;;;;18.07;4.60;;;;;;;-145.18;100.00;46607.66;5011556;28;20533;-70
2022/11/10 11:02:26;;;;;;;28.10;4.10;;;;;;;-145.18;100.00;46615.47;5011267;28;20030;-70
2022/11/10 11:05:17;;;;;;;20.50;5.27;;;;;;;-145.18;100.00;46613.50;5011492;28;20409;-70
2022/11/10 11:07:57;;;;;;;21.33;4.40;;;;;;;-145.18;100.00;46615.47;5011825;28;20029;-70
2022/11/10 11:10:32;;;;;;;22.83;4.23;;;;;;;-145.18;100.00;46621.31;4993381;28;20032;-70
2022/11/10 11:13:24;;;;;;;20.77;3.80;;;;;;;-145.18;100.00;46625.22;5011453;28;20029;-70
2022/11/10 11:16:11;;;;;;;18.57;2.60;;;;;;;-145.18;100.00;46636.94;5011504;28;20038;-70
2022/11/10 11:18:39;;;;;;;13.77;3.10;;;;;;;-145.18;100.00;46629.13;5011209;28;20040;-70
2022/11/10 11:21:17;;;;;;;17.47;3.20;;;;;;;-145.18;100.00;46625.22;5011333;28;20034;-70
2022/11/10 11:24:13;;;;;;;23.87;3.13;;;;;;;-145.18;100.00;46638.91;5011007;28;20037;-70
2022/11/10 11:26:50;;;;;;;14.20;3.78;;;;;;;-145.18;100.00;46627.19;5010707;28;20072;-70
2022/11/10 11:29:23;;;;;;;15.67;2.90;;;;;;;-145.18;100.00;46629.13;5010762;28;20093;-70
2022/11/10 11:31:51;;;;;;;17.87;3.10;;;;;;;-145.18;100.00;46627.19;5011240;28;20105;-70
2022/11/10 11:34:24;;;;;;;15.60;3.20;;;;;;;-145.18;100.00;46633.06;4993068;28;20482;-70
2022/11/10 11:37:27;;;;;;;16.53;3.00;;;;;;;-145.18;100.00;46635.00;5010490;28;20138;-70
2022/11/10 11:39:52;;;;;;;17.17;3.63;;;;;;;-145.18;100.00;46627.19;5010638;28;20034;-70
2022/11/10 11:42:53;;;;;;;17.43;3.77;;;;;;;-145.18;100.00;46627.19;5010998;28;20541;-70
2022/11/10 11:45:25;;;;;;;18.40;3.20;;;;;;;-145.18;100.00;46638.91;4956928;28;20039;-70
2022/11/10 11:48:27;;;;;;;15.73;3.10;;;;;;;-145.18;100.00;46642.81;5011034;28;20317;-70
2022/11/10 11:50:58;;;;;;;20.80;3.93;;;;;;;-145.18;100.00;46635.00;5010909;28;20080;-70
2022/11/10 11:53:49;;;;;;;18.73;4.23;;;;;;;-145.18;100.00;46644.78;5010969;28;20042;-70
2022/11/10 11:56:14;;;;;;;13.77;2.77;;;;;;;-145.18;100.00;46646.72;5006828;28;20042;-70
2022/11/10 11:58:44;;;;;;;15.10;2.93;;;;;;;-145.18;100.00;46640.88;5010425;28;20032;-70
2022/11/10 12:01:19;;;;;;;16.40;3.27;;;;;;;-145.18;100.00;46640.88;5010577;28;20139;-70
2022/11/10 12:03:59;;;;;;;19.13;2.80;;;;;;;-145.18;100.00;46636.94;5010655;28;20034;-70
2022/11/10 12:06:46;;;;;;;18.53;3.57;;;;;;;-145.18;100.00;46646.72;5010517;28;20057;-70
2022/11/10 12:09:35;;;;;;;14.70;2.60;;;;;;;-145.18;100.00;46648.69;5010055;28;20022;-70
2022/11/10 12:12:09;;;;;;;19.57;2.90;;;;;;;-145.18;100.00;46658.44;5002194;28;20121;-70
2022/11/10 12:15:00;;;;;;;18.43;3.30;;;;;;;-145.18;100.00;46685.78;5010332;28;20490;-70
2022/11/10 12:17:34;;;;;;;13.37;2.83;;;;;;;-145.18;100.00;46689.69;5010046;28;20036;-70
2022/11/10 12:20:29;;;;;;;14.90;2.97;;;;;;;-145.18;100.00;46691.66;5010250;28;20053;-70
2022/11/10 12:23:20;;;;;;;22.00;2.87;;;;;;;-145.18;100.00;46691.66;4987444;28;20391;-70
2022/11/10 12:26:13;;;;;;;19.13;3.07;;;;;;;-145.18;100.00;46693.59;5010767;28;20037;-70
2022/11/10 12:28:46;;;;;;;21.07;2.90;;;;;;;-145.18;100.00;46685.78;4992708;28;20033;-70
2022/11/10 12:31:23;;;;;;;22.03;3.47;;;;;;;-145.18;100.00;46691.66;5010214;28;20490;-70
2022/11/10 12:33:55;;;;;;;16.67;2.73;;;;;;;-145.18;100.00;46691.66;5010307;28;20033;-70
2022/11/10 12:36:23;;;;;;;11.77;2.93;;;;;;;-145.18;100.00;46707.28;5010320;28;20037;-70
2022/11/10 12:39:00;;;;;;;18.97;3.50;;;;;;;-145.18;100.00;46699.47;5010363;28;20489;-70
2022/11/10 12:41:33;;;;;;;14.07;3.27;;;;;;;-145.18;100.00;46664.31;5010671;28;20021;-70
2022/11/10 12:44:05;;;;;;;15.77;2.97;;;;;;;-145.18;100.00;46695.56;5010049;28;20080;-70
2022/11/10 12:46:30;;;;;;;14.00;2.73;;;;;;;-145.18;100.00;46717.03;5010556;28;20383;-70
2022/11/10 12:49:20;;;;;;;16.43;3.03;;;;;;;-145.18;100.00;46699.47;5010062;28;20022;-70
2022/11/10 12:51:48;;;;;;;11.17;2.60;;;;;;;-145.18;100.00;46695.56;5010460;28;20032;-70
2022/11/10 12:54:16;;;;;;;13.87;3.80;;;;;;;-145.18;100.00;46713.13;5010155;28;20060;-70
2022/11/10 12:56:52;;;;;;;15.13;2.93;;;;;;;-145.18;100.00;46699.47;5010352;28;20018;-70
2022/11/10 12:59:20;;;;;;;17.48;3.53;;;;;;;-145.18;100.00;46773.69;5009760;28;20034;-70
2022/11/10 13:01:50;;;;;;;12.07;2.70;;;;;;;-145.18;100.00;46709.22;5009873;28;20054;-70
2022/11/10 13:04:18;;;;;;;8.73;2.70;;;;;;;-145.18;100.00;46705.31;5009904;28;20052;-70
2022/11/10 13:07:00;;;;;;;12.87;2.50;;;;;;;-145.18;100.00;47160.47;5010594;28;20030;-70
2022/11/10 13:09:34;;;;;;;14.07;2.60;;;;;;;-145.18;100.00;47215.19;5009733;28;20065;-70
2022/11/10 13:12:18;;;;;;;19.03;2.90;;;;;;;-145.18;100.00;47181.97;5009589;28;20033;-70
2022/11/10 13:14:45;;;;;;;13.67;2.70;;;;;;;-145.18;100.00;47158.53;5010001;28;20536;-70
2022/11/10 13:17:30;;;;;;;13.63;2.50;;;;;;;-145.18;100.00;47172.19;5010399;28;20382;-70
2022/11/10 13:19:59;;;;;;;14.73;3.00;;;;;;;-145.18;100.00;47191.75;5009838;28;20037;-70
2022/11/10 13:22:35;;;;;;;16.43;3.20;;;;;;;-145.18;100.00;47183.94;5009501;28;20942;-70
2022/11/10 13:25:35;;;;;;;16.43;2.77;;;;;;;-145.18;100.00;47197.59;5009635;28;20037;-70
2022/11/10 13:28:00;;;;;;;13.13;2.80;;;;;;;-145.18;100.00;47242.53;5009992;28;20172;-70
2022/11/10 13:30:47;;;;;;;14.27;2.57;;;;;;;-145.18;100.00;47299.19;5012437;28;20030;-70
2022/11/10 13:33:22;;;;;;;14.70;2.60;;;;;;;-145.18;100.00;47398.81;5013133;28;20029;-70
2022/11/10 13:35:53;;;;;;;12.73;2.80;;;;;;;-145.18;100.00;47482.84;5013409;28;20133;-70
2022/11/10 13:38:31;;;;;;;12.83;2.70;;;;;;;-145.18;100.00;47043.28;5013108;28;20471;-70
2022/11/10 13:41:22;;;;;;;12.67;2.87;;;;;;;-145.18;100.00;46908.47;5013390;28;20033;-70
2022/11/10 13:43:56;;;;;;;19.40;2.53;;;;;;;-145.18;100.00;46902.63;5012813;28;20018;-70
2022/11/10 13:46:36;;;;;;;10.70;2.25;;;;;;;-145.18;100.00;46838.16;5012917;28;20030;-70
2022/11/10 13:49:39;;;;;;;11.30;2.80;;;;;;;-145.18;100.00;46818.63;5013117;28;20034;-70
2022/11/10 13:52:18;;;;;;;12.43;2.87;;;;;;;-145.18;100.00;46812.75;5013028;28;20026;-70
2022/11/10 13:54:55;;;;;;;16.77;3.13;;;;;;;-145.18;100.00;46879.19;5013181;28;20440;-70
2022/11/10 13:57:46;;;;;;;12.57;2.50;;;;;;;-145.18;100.00;46812.75;5013184;28;20054;-70
2022/11/10 14:00:17;;;;;;;21.20;2.87;;;;;;;-145.18;100.00;46773.69;4989603;28;20141;-70
2022/11/10 14:02:59;;;;;;;15.77;2.53;;;;;;;-145.18;100.00;47103.81;5012905;28;20050;-70
2022/11/10 14:05:27;;;;;;;12.30;2.37;;;;;;;-145.18;100.00;47340.22;5012593;28;20033;-70
2022/11/10 14:08:02;;;;;;;8.37;2.40;;;;;;;-145.18;100.00;46888.94;5012866;28;20378;-70
2022/11/10 14:10:49;;;;;;;11.27;2.80;;;;;;;-145.18;100.00;46804.94;4994985;28;20029;-70
2022/11/10 14:13:27;;;;;;;9.43;2.43;;;;;;;-145.18;100.00;46801.03;5012843;28;20034;-70
2022/11/10 14:15:53;;;;;;;12.90;3.63;;;;;;;-145.18;100.00;46795.19;5012450;28;20033;-70
2022/11/10 14:18:25;;;;;;;8.83;2.60;;;;;;;-145.18;100.00;46828.38;5012592;28;20034;-70
2022/11/10 14:20:59;;;;;;;13.93;2.80;;;;;;;-145.18;100.00;46871.38;5012493;28;20028;-70
2022/11/10 14:23:44;;;;;;;12.17;2.40;;;;;;;-145.18;100.00;47191.75;5012242;28;20030;-70
2022/11/10 14:26:27;;;;;;;13.00;2.67;;;;;;;-145.18;100.00;47400.78;5012338;28;20026;-70
2022/11/10 14:28:53;;;;;;;10.70;2.60;;;;;;;-145.18;100.00;47383.19;5012835;28;20425;-70
2022/11/10 14:31:22;;;;;;;14.27;2.87;;;;;;;-145.18;100.00;47422.28;5012198;28;20080;-70